sensor_id;sensor_type;location;lat;lon;timestamp;pressure;altitude;pressure_sealevel;temperature;humidity
78409;BME280;67697;50.750;-3.270;2023-03-01T00:00:24;102531.39;;;3.88;64.18
78409;BME280;67697;50.750;-3.270;2023-03-01T00:02:50;102522.66;;;3.98;62.53
78409;BME280;67697;50.750;-3.270;2023-03-01T00:05:15;102517.88;;;5.16;60.01
78409;BME280;67697;50.750;-3.270;2023-03-01T00:07:40;102519.37;;;5.37;59.23
78409;BME280;67697;50.750;-3.270;2023-03-01T00:10:07;102512.52;;;5.63;58.42
78409;BME280;67697;50.750;-3.270;2023-03-01T00:12:32;102511.55;;;4.14;61.63
78409;BME280;67697;50.750;-3.270;2023-03-01T00:14:57;102512.09;;;3.68;62.77
78409;BME280;67697;50.750;-3.270;2023-03-01T00:17:23;102513.58;;;4.25;62.00
78409;BME280;67697;50.750;-3.270;2023-03-01T00:19:49;102514.33;;;4.87;59.97
78409;BME280;67697;50.750;-3.270;2023-03-01T00:22:15;102515.03;;;5.02;61.05
78409;BME280;67697;50.750;-3.270;2023-03-01T00:24:40;102510.59;;;4.40;62.62
78409;BME280;67697;50.750;-3.270;2023-03-01T00:27:06;102507.03;;;5.14;61.48
78409;BME280;67697;50.750;-3.270;2023-03-01T00:29:31;102506.15;;;5.19;61.60
78409;BME280;67697;50.750;-3.270;2023-03-01T00:31:57;102502.65;;;4.77;63.17
78409;BME280;67697;50.750;-3.270;2023-03-01T00:34:23;102505.44;;;4.82;62.65
78409;BME280;67697;50.750;-3.270;2023-03-01T00:36:49;102506.64;;;5.12;61.74
78409;BME280;67697;50.750;-3.270;2023-03-01T00:39:15;102512.40;;;4.74;62.77
78409;BME280;67697;50.750;-3.270;2023-03-01T00:41:40;102508.97;;;4.76;62.56
78409;BME280;67697;50.750;-3.270;2023-03-01T00:44:06;102506.65;;;4.71;63.36
78409;BME280;67697;50.750;-3.270;2023-03-01T00:46:31;102508.98;;;4.95;61.97
78409;BME280;67697;50.750;-3.270;2023-03-01T00:48:57;102505.98;;;4.99;60.59
78409;BME280;67697;50.750;-3.270;2023-03-01T00:51:25;102498.56;;;4.01;62.93
78409;BME280;67697;50.750;-3.270;2023-03-01T00:53:51;102502.97;;;3.93;62.98
78409;BME280;67697;50.750;-3.270;2023-03-01T00:56:15;102496.79;;;4.41;62.19
78409;BME280;67697;50.750;-3.270;2023-03-01T00:58:40;102491.96;;;5.14;59.56
78409;BME280;67697;50.750;-3.270;2023-03-01T01:01:08;102488.55;;;4.80;59.25
78409;BME280;67697;50.750;-3.270;2023-03-01T01:03:32;102489.05;;;4.61;59.62
78409;BME280;67697;50.750;-3.270;2023-03-01T01:05:57;102486.49;;;4.58;59.95
78409;BME280;67697;50.750;-3.270;2023-03-01T01:08:23;102488.38;;;4.77;60.48
78409;BME280;67697;50.750;-3.270;2023-03-01T01:10:49;102490.05;;;4.86;58.80
78409;BME280;67697;50.750;-3.270;2023-03-01T01:13:15;102489.83;;;4.41;59.96
78409;BME280;67697;50.750;-3.270;2023-03-01T01:15:41;102496.62;;;3.43;61.96
78409;BME280;67697;50.750;-3.270;2023-03-01T01:18:07;102493.98;;;4.22;59.26
78409;BME280;67697;50.750;-3.270;2023-03-01T01:20:34;102497.96;;;4.44;58.62
78409;BME280;67697;50.750;-3.270;2023-03-01T01:22:58;102497.28;;;4.34;58.42
78409;BME280;67697;50.750;-3.270;2023-03-01T01:25:24;102499.29;;;4.37;58.22
78409;BME280;67697;50.750;-3.270;2023-03-01T01:27:50;102500.05;;;4.79;57.23
78409;BME280;67697;50.750;-3.270;2023-03-01T01:30:16;102502.47;;;4.99;57.01
78409;BME280;67697;50.750;-3.270;2023-03-01T01:32:41;102504.88;;;4.42;57.44
78409;BME280;67697;50.750;-3.270;2023-03-01T01:35:07;102502.49;;;4.74;58.39
78409;BME280;67697;50.750;-3.270;2023-03-01T01:37:33;102505.35;;;4.95;57.51
78409;BME280;67697;50.750;-3.270;2023-03-01T01:40:00;102505.24;;;4.73;57.92
78409;BME280;67697;50.750;-3.270;2023-03-01T01:42:25;102503.97;;;5.06;57.94
78409;BME280;67697;50.750;-3.270;2023-03-01T01:47:19;102503.61;;;4.75;57.41
78409;BME280;67697;50.750;-3.270;2023-03-01T01:49:45;102502.09;;;4.44;59.20
78409;BME280;67697;50.750;-3.270;2023-03-01T01:52:11;102498.11;;;5.18;56.12
78409;BME280;67697;50.750;-3.270;2023-03-01T01:54:39;102497.12;;;5.21;57.31
78409;BME280;67697;50.750;-3.270;2023-03-01T01:57:02;102498.56;;;4.62;58.81
78409;BME280;67697;50.750;-3.270;2023-03-01T01:59:26;102493.91;;;4.22;60.48
78409;BME280;67697;50.750;-3.270;2023-03-01T02:01:51;102497.61;;;3.83;62.52
78409;BME280;67697;50.750;-3.270;2023-03-01T02:04:17;102487.84;;;3.95;62.79
78409;BME280;67697;50.750;-3.270;2023-03-01T02:06:48;102492.43;;;4.11;63.20
78409;BME280;67697;50.750;-3.270;2023-03-01T02:09:14;102487.00;;;4.00;63.92
78409;BME280;67697;50.750;-3.270;2023-03-01T02:11:34;102484.93;;;4.24;63.42
78409;BME280;67697;50.750;-3.270;2023-03-01T02:14:00;102478.91;;;4.44;61.68
78409;BME280;67697;50.750;-3.270;2023-03-01T02:16:26;102474.84;;;4.31;62.54
78409;BME280;67697;50.750;-3.270;2023-03-01T02:18:50;102474.28;;;3.71;63.40
78409;BME280;67697;50.750;-3.270;2023-03-01T02:21:30;102480.74;;;3.72;64.40
78409;BME280;67697;50.750;-3.270;2023-03-01T02:23:41;102473.34;;;4.31;63.07
78409;BME280;67697;50.750;-3.270;2023-03-01T02:26:09;102472.97;;;4.17;63.41
78409;BME280;67697;50.750;-3.270;2023-03-01T02:28:33;102469.29;;;4.41;62.54
78409;BME280;67697;50.750;-3.270;2023-03-01T02:30:58;102477.96;;;3.25;65.26
78409;BME280;67697;50.750;-3.270;2023-03-01T02:33:24;102471.43;;;4.22;62.51
78409;BME280;67697;50.750;-3.270;2023-03-01T02:35:49;102467.08;;;3.93;62.92
78409;BME280;67697;50.750;-3.270;2023-03-01T02:38:15;102468.49;;;4.04;63.41
78409;BME280;67697;50.750;-3.270;2023-03-01T02:40:41;102461.38;;;3.99;62.14
78409;BME280;67697;50.750;-3.270;2023-03-01T02:43:09;102461.73;;;4.65;60.15
78409;BME280;67697;50.750;-3.270;2023-03-01T02:45:32;102463.27;;;3.81;63.05
78409;BME280;67697;50.750;-3.270;2023-03-01T02:47:58;102467.47;;;3.36;63.80
78409;BME280;67697;50.750;-3.270;2023-03-01T02:52:55;102462.47;;;3.68;63.50
78409;BME280;67697;50.750;-3.270;2023-03-01T02:55:17;102465.11;;;3.82;62.91
78409;BME280;67697;50.750;-3.270;2023-03-01T02:57:41;102465.74;;;3.01;65.01
78409;BME280;67697;50.750;-3.270;2023-03-01T03:00:08;102459.76;;;3.82;63.12
78409;BME280;67697;50.750;-3.270;2023-03-01T03:02:32;102453.54;;;3.79;62.19
78409;BME280;67697;50.750;-3.270;2023-03-01T03:04:57;102455.14;;;3.80;62.49
78409;BME280;67697;50.750;-3.270;2023-03-01T03:07:23;102452.57;;;3.94;62.06
78409;BME280;67697;50.750;-3.270;2023-03-01T03:09:49;102451.65;;;3.95;61.52
78409;BME280;67697;50.750;-3.270;2023-03-01T03:12:15;102450.41;;;3.81;61.75
78409;BME280;67697;50.750;-3.270;2023-03-01T03:14:41;102453.20;;;3.54;60.94
78409;BME280;67697;50.750;-3.270;2023-03-01T03:17:06;102444.93;;;3.94;61.56
78409;BME280;67697;50.750;-3.270;2023-03-01T03:19:32;102442.53;;;3.79;60.87
78409;BME280;67697;50.750;-3.270;2023-03-01T03:21:58;102448.36;;;4.01;61.58
78409;BME280;67697;50.750;-3.270;2023-03-01T03:24:23;102444.84;;;3.90;60.83
78409;BME280;67697;50.750;-3.270;2023-03-01T03:26:49;102443.97;;;3.78;61.24
78409;BME280;67697;50.750;-3.270;2023-03-01T03:29:15;102446.18;;;5.15;58.07
78409;BME280;67697;50.750;-3.270;2023-03-01T03:31:41;102442.21;;;4.63;58.45
78409;BME280;67697;50.750;-3.270;2023-03-01T03:34:07;102439.37;;;4.55;59.41
78409;BME280;67697;50.750;-3.270;2023-03-01T03:36:32;102438.98;;;4.62;58.93
78409;BME280;67697;50.750;-3.270;2023-03-01T03:38:57;102436.68;;;4.77;59.27
78409;BME280;67697;50.750;-3.270;2023-03-01T03:41:23;102437.37;;;4.05;60.93
78409;BME280;67697;50.750;-3.270;2023-03-01T03:43:48;102435.91;;;4.09;60.80
78409;BME280;67697;50.750;-3.270;2023-03-01T03:46:13;102435.44;;;4.56;60.27
78409;BME280;67697;50.750;-3.270;2023-03-01T03:48:41;102431.46;;;3.83;61.68
78409;BME280;67697;50.750;-3.270;2023-03-01T03:51:06;102431.46;;;3.86;61.82
78409;BME280;67697;50.750;-3.270;2023-03-01T03:53:31;102424.56;;;4.24;60.31
78409;BME280;67697;50.750;-3.270;2023-03-01T03:55:57;102424.28;;;4.94;58.88
78409;BME280;67697;50.750;-3.270;2023-03-01T03:58:24;102421.92;;;4.01;60.62
78409;BME280;67697;50.750;-3.270;2023-03-01T04:00:51;102420.31;;;4.29;59.42
78409;BME280;67697;50.750;-3.270;2023-03-01T04:03:15;102420.12;;;3.59;60.40
78409;BME280;67697;50.750;-3.270;2023-03-01T04:05:40;102426.16;;;3.88;61.30
78409;BME280;67697;50.750;-3.270;2023-03-01T04:08:07;102421.59;;;4.04;61.55
78409;BME280;67697;50.750;-3.270;2023-03-01T04:10:34;102423.17;;;3.53;63.39
78409;BME280;67697;50.750;-3.270;2023-03-01T04:12:57;102418.12;;;3.79;63.20
78409;BME280;67697;50.750;-3.270;2023-03-01T04:15:24;102419.57;;;3.74;63.09
78409;BME280;67697;50.750;-3.270;2023-03-01T04:17:51;102416.44;;;4.43;60.38
78409;BME280;67697;50.750;-3.270;2023-03-01T04:20:17;102424.07;;;3.32;64.00
78409;BME280;67697;50.750;-3.270;2023-03-01T04:22:41;102419.32;;;3.71;62.58
78409;BME280;67697;50.750;-3.270;2023-03-01T04:25:07;102416.51;;;3.27;64.05
78409;BME280;67697;50.750;-3.270;2023-03-01T04:27:32;102412.71;;;3.22;63.03
78409;BME280;67697;50.750;-3.270;2023-03-01T04:29:57;102408.94;;;4.50;60.90
78409;BME280;67697;50.750;-3.270;2023-03-01T04:32:22;102415.65;;;3.68;63.25
78409;BME280;67697;50.750;-3.270;2023-03-01T04:34:48;102413.29;;;3.67;63.62
78409;BME280;67697;50.750;-3.270;2023-03-01T04:37:13;102420.70;;;3.36;64.43
78409;BME280;67697;50.750;-3.270;2023-03-01T04:39:39;102413.34;;;3.83;63.35
78409;BME280;67697;50.750;-3.270;2023-03-01T04:42:05;102417.46;;;3.36;64.74
78409;BME280;67697;50.750;-3.270;2023-03-01T04:44:30;102417.36;;;3.03;66.04
78409;BME280;67697;50.750;-3.270;2023-03-01T04:46:56;102414.29;;;3.67;63.82
78409;BME280;67697;50.750;-3.270;2023-03-01T04:49:21;102414.66;;;3.00;64.90
78409;BME280;67697;50.750;-3.270;2023-03-01T04:51:47;102410.23;;;3.21;64.51
78409;BME280;67697;50.750;-3.270;2023-03-01T04:54:12;102411.50;;;2.92;66.04
78409;BME280;67697;50.750;-3.270;2023-03-01T04:56:38;102414.09;;;3.05;64.34
78409;BME280;67697;50.750;-3.270;2023-03-01T04:59:03;102416.02;;;2.60;64.98
78409;BME280;67697;50.750;-3.270;2023-03-01T05:01:29;102419.51;;;2.84;64.85
78409;BME280;67697;50.750;-3.270;2023-03-01T05:03:54;102416.54;;;3.23;64.38
78409;BME280;67697;50.750;-3.270;2023-03-01T05:06:20;102412.02;;;3.20;62.99
78409;BME280;67697;50.750;-3.270;2023-03-01T05:08:45;102412.63;;;2.89;63.49
78409;BME280;67697;50.750;-3.270;2023-03-01T05:11:11;102417.06;;;3.12;63.78
78409;BME280;67697;50.750;-3.270;2023-03-01T05:13:37;102409.06;;;3.30;62.84
78409;BME280;67697;50.750;-3.270;2023-03-01T05:16:03;102413.25;;;3.01;65.00
78409;BME280;67697;50.750;-3.270;2023-03-01T05:18:29;102410.65;;;3.22;64.66
78409;BME280;67697;50.750;-3.270;2023-03-01T05:20:54;102411.81;;;1.66;69.22
78409;BME280;67697;50.750;-3.270;2023-03-01T05:23:18;102409.57;;;2.63;66.90
78409;BME280;67697;50.750;-3.270;2023-03-01T05:25:44;102411.29;;;1.66;69.58
78409;BME280;67697;50.750;-3.270;2023-03-01T05:28:11;102404.58;;;3.20;65.72
78409;BME280;67697;50.750;-3.270;2023-03-01T05:30:34;102409.85;;;2.53;67.32
78409;BME280;67697;50.750;-3.270;2023-03-01T05:33:00;102411.15;;;2.32;68.79
78409;BME280;67697;50.750;-3.270;2023-03-01T05:35:26;102402.78;;;3.85;63.45
78409;BME280;67697;50.750;-3.270;2023-03-01T05:37:50;102400.82;;;4.16;61.34
78409;BME280;67697;50.750;-3.270;2023-03-01T05:40:18;102402.26;;;4.10;62.29
78409;BME280;67697;50.750;-3.270;2023-03-01T05:42:43;102402.92;;;3.92;61.48
78409;BME280;67697;50.750;-3.270;2023-03-01T05:45:08;102404.73;;;4.41;60.18
78409;BME280;67697;50.750;-3.270;2023-03-01T05:47:32;102404.68;;;4.48;61.18
78409;BME280;67697;50.750;-3.270;2023-03-01T05:49:58;102402.87;;;5.10;58.36
78409;BME280;67697;50.750;-3.270;2023-03-01T05:52:24;102406.32;;;4.44;60.83
78409;BME280;67697;50.750;-3.270;2023-03-01T05:54:49;102409.04;;;4.17;61.72
78409;BME280;67697;50.750;-3.270;2023-03-01T05:57:15;102412.06;;;2.60;65.53
78409;BME280;67697;50.750;-3.270;2023-03-01T05:59:40;102414.03;;;3.10;64.60
78409;BME280;67697;50.750;-3.270;2023-03-01T06:02:06;102411.81;;;3.05;65.70
78409;BME280;67697;50.750;-3.270;2023-03-01T06:04:31;102408.18;;;3.42;64.73
78409;BME280;67697;50.750;-3.270;2023-03-01T06:06:56;102405.52;;;3.08;65.01
78409;BME280;67697;50.750;-3.270;2023-03-01T06:09:22;102410.36;;;3.14;64.70
78409;BME280;67697;50.750;-3.270;2023-03-01T06:11:48;102413.15;;;3.20;65.26
78409;BME280;67697;50.750;-3.270;2023-03-01T06:14:13;102410.03;;;3.82;63.92
78409;BME280;67697;50.750;-3.270;2023-03-01T06:16:40;102413.57;;;3.20;65.15
78409;BME280;67697;50.750;-3.270;2023-03-01T06:19:04;102416.83;;;3.23;63.92
78409;BME280;67697;50.750;-3.270;2023-03-01T06:21:30;102411.27;;;3.98;63.18
78409;BME280;67697;50.750;-3.270;2023-03-01T06:23:56;102415.40;;;3.19;64.85
78409;BME280;67697;50.750;-3.270;2023-03-01T06:26:21;102413.99;;;2.02;67.38
78409;BME280;67697;50.750;-3.270;2023-03-01T06:28:47;102409.14;;;3.14;64.89
78409;BME280;67697;50.750;-3.270;2023-03-01T06:31:13;102400.96;;;3.57;63.32
78409;BME280;67697;50.750;-3.270;2023-03-01T06:33:38;102408.47;;;2.38;65.58
78409;BME280;67697;50.750;-3.270;2023-03-01T06:36:04;102403.55;;;3.14;63.92
78409;BME280;67697;50.750;-3.270;2023-03-01T06:38:29;102398.21;;;3.61;62.52
78409;BME280;67697;50.750;-3.270;2023-03-01T06:40:55;102396.57;;;3.62;61.65
78409;BME280;67697;50.750;-3.270;2023-03-01T06:43:20;102396.66;;;4.49;59.22
78409;BME280;67697;50.750;-3.270;2023-03-01T06:45:45;102398.45;;;3.81;60.60
78409;BME280;67697;50.750;-3.270;2023-03-01T06:48:10;102401.44;;;5.22;57.72
78409;BME280;67697;50.750;-3.270;2023-03-01T06:50:36;102398.80;;;5.06;56.68
78409;BME280;67697;50.750;-3.270;2023-03-01T06:53:01;102403.51;;;3.79;58.78
78409;BME280;67697;50.750;-3.270;2023-03-01T06:55:27;102400.04;;;4.24;57.77
78409;BME280;67697;50.750;-3.270;2023-03-01T06:57:54;102406.40;;;4.67;57.03
78409;BME280;67697;50.750;-3.270;2023-03-01T07:00:19;102408.26;;;3.80;60.18
78409;BME280;67697;50.750;-3.270;2023-03-01T07:02:44;102407.87;;;4.02;59.36
78409;BME280;67697;50.750;-3.270;2023-03-01T07:05:09;102408.01;;;5.48;56.36
78409;BME280;67697;50.750;-3.270;2023-03-01T07:07:35;102410.41;;;5.32;56.30
78409;BME280;67697;50.750;-3.270;2023-03-01T07:10:00;102414.75;;;4.55;57.80
78409;BME280;67697;50.750;-3.270;2023-03-01T07:12:26;102416.26;;;3.43;61.41
78409;BME280;67697;50.750;-3.270;2023-03-01T07:14:51;102416.67;;;4.10;59.78
78409;BME280;67697;50.750;-3.270;2023-03-01T07:17:17;102414.71;;;5.32;56.29
78409;BME280;67697;50.750;-3.270;2023-03-01T07:19:43;102414.80;;;4.18;59.39
78409;BME280;67697;50.750;-3.270;2023-03-01T07:22:08;102419.43;;;5.10;57.79
78409;BME280;67697;50.750;-3.270;2023-03-01T07:24:33;102419.82;;;3.21;61.81
78409;BME280;67697;50.750;-3.270;2023-03-01T07:26:59;102419.03;;;4.26;60.34
78409;BME280;67697;50.750;-3.270;2023-03-01T07:29:24;102420.49;;;4.12;59.68
78409;BME280;67697;50.750;-3.270;2023-03-01T07:31:50;102419.05;;;4.73;59.10
78409;BME280;67697;50.750;-3.270;2023-03-01T07:34:15;102419.95;;;3.63;61.39
78409;BME280;67697;50.750;-3.270;2023-03-01T07:36:41;102418.44;;;4.11;60.80
78409;BME280;67697;50.750;-3.270;2023-03-01T07:39:07;102416.08;;;4.31;60.43
78409;BME280;67697;50.750;-3.270;2023-03-01T07:41:33;102414.03;;;3.88;61.11
78409;BME280;67697;50.750;-3.270;2023-03-01T07:43:59;102417.76;;;4.42;60.45
78409;BME280;67697;50.750;-3.270;2023-03-01T07:46:24;102416.81;;;4.48;60.00
78409;BME280;67697;50.750;-3.270;2023-03-01T07:48:50;102418.02;;;3.95;61.06
78409;BME280;67697;50.750;-3.270;2023-03-01T07:51:16;102421.71;;;3.81;62.01
78409;BME280;67697;50.750;-3.270;2023-03-01T07:53:45;102422.92;;;4.08;60.73
78409;BME280;67697;50.750;-3.270;2023-03-01T07:56:10;102423.12;;;4.48;59.59
78409;BME280;67697;50.750;-3.270;2023-03-01T07:58:34;102424.40;;;4.07;60.45
78409;BME280;67697;50.750;-3.270;2023-03-01T08:01:01;102422.53;;;4.19;60.51
78409;BME280;67697;50.750;-3.270;2023-03-01T08:03:25;102428.48;;;4.11;59.65
78409;BME280;67697;50.750;-3.270;2023-03-01T08:05:51;102431.29;;;3.68;62.38
78409;BME280;67697;50.750;-3.270;2023-03-01T08:08:17;102442.24;;;3.25;62.90
78409;BME280;67697;50.750;-3.270;2023-03-01T08:10:43;102440.29;;;3.20;63.01
78409;BME280;67697;50.750;-3.270;2023-03-01T08:13:08;102446.15;;;3.22;62.69
78409;BME280;67697;50.750;-3.270;2023-03-01T08:15:34;102444.81;;;3.64;62.53
78409;BME280;67697;50.750;-3.270;2023-03-01T08:18:00;102444.37;;;3.22;62.25
78409;BME280;67697;50.750;-3.270;2023-03-01T08:20:26;102439.99;;;3.54;62.35
78409;BME280;67697;50.750;-3.270;2023-03-01T08:22:52;102435.27;;;3.91;60.10
78409;BME280;67697;50.750;-3.270;2023-03-01T08:25:18;102438.93;;;3.99;59.98
78409;BME280;67697;50.750;-3.270;2023-03-01T08:27:43;102435.77;;;3.13;62.15
78409;BME280;67697;50.750;-3.270;2023-03-01T08:30:10;102437.95;;;3.53;60.56
78409;BME280;67697;50.750;-3.270;2023-03-01T08:32:37;102434.53;;;3.84;59.60
78409;BME280;67697;50.750;-3.270;2023-03-01T08:35:01;102443.34;;;2.90;62.53
78409;BME280;67697;50.750;-3.270;2023-03-01T08:37:26;102448.13;;;3.42;60.84
78409;BME280;67697;50.750;-3.270;2023-03-01T08:39:52;102442.83;;;3.81;60.19
78409;BME280;67697;50.750;-3.270;2023-03-01T08:42:18;102437.52;;;4.02;57.36
78409;BME280;67697;50.750;-3.270;2023-03-01T08:44:44;102435.76;;;3.25;59.84
78409;BME280;67697;50.750;-3.270;2023-03-01T08:47:10;102429.69;;;3.90;58.12
78409;BME280;67697;50.750;-3.270;2023-03-01T08:49:35;102425.03;;;3.78;59.05
78409;BME280;67697;50.750;-3.270;2023-03-01T08:52:02;102429.06;;;2.57;61.41
78409;BME280;67697;50.750;-3.270;2023-03-01T08:54:27;102425.91;;;4.28;58.43
78409;BME280;67697;50.750;-3.270;2023-03-01T08:56:53;102423.40;;;4.32;57.65
78409;BME280;67697;50.750;-3.270;2023-03-01T08:59:19;102422.81;;;4.06;58.75
78409;BME280;67697;50.750;-3.270;2023-03-01T09:01:45;102421.52;;;3.84;59.62
78409;BME280;67697;50.750;-3.270;2023-03-01T09:04:10;102428.19;;;2.82;62.48
78409;BME280;67697;50.750;-3.270;2023-03-01T09:06:36;102419.00;;;3.84;59.93
78409;BME280;67697;50.750;-3.270;2023-03-01T09:09:03;102419.07;;;4.05;58.82
78409;BME280;67697;50.750;-3.270;2023-03-01T09:11:28;102417.01;;;3.95;59.10
78409;BME280;67697;50.750;-3.270;2023-03-01T09:13:53;102420.53;;;3.72;59.51
78409;BME280;67697;50.750;-3.270;2023-03-01T09:16:20;102413.35;;;4.05;59.86
78409;BME280;67697;50.750;-3.270;2023-03-01T09:18:48;102408.98;;;4.52;58.58
78409;BME280;67697;50.750;-3.270;2023-03-01T09:21:12;102409.71;;;4.06;58.65
78409;BME280;67697;50.750;-3.270;2023-03-01T09:23:37;102418.49;;;4.54;58.40
78409;BME280;67697;50.750;-3.270;2023-03-01T09:26:02;102416.29;;;4.46;59.17
78409;BME280;67697;50.750;-3.270;2023-03-01T09:28:28;102417.69;;;3.27;62.14
78409;BME280;67697;50.750;-3.270;2023-03-01T09:30:57;102422.35;;;3.00;63.43
78409;BME280;67697;50.750;-3.270;2023-03-01T09:33:19;102413.72;;;3.24;61.83
78409;BME280;67697;50.750;-3.270;2023-03-01T09:35:45;102415.77;;;3.21;62.94
78409;BME280;67697;50.750;-3.270;2023-03-01T09:38:12;102410.15;;;4.25;61.23
78409;BME280;67697;50.750;-3.270;2023-03-01T09:40:42;102406.85;;;4.00;61.31
78409;BME280;67697;50.750;-3.270;2023-03-01T09:43:11;102406.98;;;3.31;62.84
78409;BME280;67697;50.750;-3.270;2023-03-01T09:45:33;102403.24;;;3.70;62.47
78409;BME280;67697;50.750;-3.270;2023-03-01T09:47:54;102398.77;;;4.04;61.78
78409;BME280;67697;50.750;-3.270;2023-03-01T09:50:21;102398.53;;;4.38;60.09
78409;BME280;67697;50.750;-3.270;2023-03-01T09:52:50;102397.44;;;4.13;60.74
78409;BME280;67697;50.750;-3.270;2023-03-01T09:55:14;102397.81;;;4.32;61.40
78409;BME280;67697;50.750;-3.270;2023-03-01T09:57:43;102394.70;;;4.17;61.83
78409;BME280;67697;50.750;-3.270;2023-03-01T10:00:15;102395.68;;;4.57;61.65
78409;BME280;67697;50.750;-3.270;2023-03-01T10:02:37;102391.65;;;4.79;61.48
78409;BME280;67697;50.750;-3.270;2023-03-01T10:04:59;102395.26;;;4.22;62.38
78409;BME280;67697;50.750;-3.270;2023-03-01T10:07:27;102396.58;;;4.33;62.96
78409;BME280;67697;50.750;-3.270;2023-03-01T10:09:47;102393.22;;;4.66;61.41
78409;BME280;67697;50.750;-3.270;2023-03-01T10:12:15;102389.09;;;4.25;61.49
78409;BME280;67697;50.750;-3.270;2023-03-01T10:14:40;102388.33;;;4.10;63.76
78409;BME280;67697;50.750;-3.270;2023-03-01T10:17:07;102382.64;;;3.67;65.01
78409;BME280;67697;50.750;-3.270;2023-03-01T10:19:32;102371.90;;;4.50;63.09
78409;BME280;67697;50.750;-3.270;2023-03-01T10:22:00;102372.47;;;4.65;63.57
78409;BME280;67697;50.750;-3.270;2023-03-01T10:24:20;102367.85;;;4.34;65.51
78409;BME280;67697;50.750;-3.270;2023-03-01T10:26:54;102364.95;;;3.65;66.67
78409;BME280;67697;50.750;-3.270;2023-03-01T10:29:13;102367.68;;;4.84;62.69
78409;BME280;67697;50.750;-3.270;2023-03-01T10:31:41;102365.75;;;4.16;65.04
78409;BME280;67697;50.750;-3.270;2023-03-01T10:34:08;102368.92;;;4.18;66.08
78409;BME280;67697;50.750;-3.270;2023-03-01T10:36:32;102369.06;;;4.66;63.67
78409;BME280;67697;50.750;-3.270;2023-03-01T10:38:57;102364.29;;;3.66;66.92
78409;BME280;67697;50.750;-3.270;2023-03-01T10:41:21;102367.04;;;3.79;67.13
78409;BME280;67697;50.750;-3.270;2023-03-01T10:43:49;102362.11;;;3.54;68.92
78409;BME280;67697;50.750;-3.270;2023-03-01T10:46:25;102361.96;;;4.23;66.07
78409;BME280;67697;50.750;-3.270;2023-03-01T10:48:38;102363.69;;;3.79;65.47
78409;BME280;67697;50.750;-3.270;2023-03-01T10:51:06;102356.93;;;4.41;63.49
78409;BME280;67697;50.750;-3.270;2023-03-01T10:53:33;102354.69;;;4.32;63.03
78409;BME280;67697;50.750;-3.270;2023-03-01T10:55:59;102351.48;;;3.89;63.22
78409;BME280;67697;50.750;-3.270;2023-03-01T10:58:22;102348.96;;;3.78;64.45
78409;BME280;67697;50.750;-3.270;2023-03-01T11:00:49;102347.27;;;5.17;58.86
78409;BME280;67697;50.750;-3.270;2023-03-01T11:03:15;102348.08;;;4.72;60.72
78409;BME280;67697;50.750;-3.270;2023-03-01T11:08:04;102342.41;;;5.04;60.65
78409;BME280;67697;50.750;-3.270;2023-03-01T11:10:32;102342.83;;;4.02;62.18
78409;BME280;67697;50.750;-3.270;2023-03-01T11:13:06;102336.28;;;4.30;59.81
78409;BME280;67697;50.750;-3.270;2023-03-01T11:15:26;102332.89;;;5.07;57.53
78409;BME280;67697;50.750;-3.270;2023-03-01T11:17:47;102326.19;;;4.47;58.79
78409;BME280;67697;50.750;-3.270;2023-03-01T11:20:20;102323.32;;;5.08;56.15
78409;BME280;67697;50.750;-3.270;2023-03-01T11:22:45;102324.52;;;4.54;58.10
78409;BME280;67697;50.750;-3.270;2023-03-01T11:25:07;102327.23;;;4.61;58.76
78409;BME280;67697;50.750;-3.270;2023-03-01T11:27:32;102316.96;;;3.77;59.68
78409;BME280;67697;50.750;-3.270;2023-03-01T11:30:00;102313.41;;;4.63;58.19
78409;BME280;67697;50.750;-3.270;2023-03-01T11:32:24;102310.27;;;4.11;59.87
78409;BME280;67697;50.750;-3.270;2023-03-01T11:34:50;102309.50;;;4.04;60.61
78409;BME280;67697;50.750;-3.270;2023-03-01T11:37:22;102308.22;;;3.73;62.29
78409;BME280;67697;50.750;-3.270;2023-03-01T11:39:42;102299.92;;;4.99;58.85
78409;BME280;67697;50.750;-3.270;2023-03-01T11:42:15;102298.49;;;4.25;59.77
78409;BME280;67697;50.750;-3.270;2023-03-01T11:44:33;102295.37;;;5.12;58.29
78409;BME280;67697;50.750;-3.270;2023-03-01T11:47:10;102292.76;;;5.36;55.63
78409;BME280;67697;50.750;-3.270;2023-03-01T11:49:33;102290.09;;;4.90;57.42
78409;BME280;67697;50.750;-3.270;2023-03-01T11:51:53;102286.32;;;4.23;58.15
78409;BME280;67697;50.750;-3.270;2023-03-01T11:54:22;102283.67;;;5.69;54.43
78409;BME280;67697;50.750;-3.270;2023-03-01T11:56:43;102282.46;;;5.51;54.91
78409;BME280;67697;50.750;-3.270;2023-03-01T11:59:24;102280.38;;;5.30;56.26
78409;BME280;67697;50.750;-3.270;2023-03-01T12:01:39;102273.54;;;5.00;56.06
78409;BME280;67697;50.750;-3.270;2023-03-01T12:06:29;102269.72;;;4.80;56.72
78409;BME280;67697;50.750;-3.270;2023-03-01T12:08:56;102271.49;;;4.83;56.49
78409;BME280;67697;50.750;-3.270;2023-03-01T12:11:22;102260.16;;;4.34;56.06
78409;BME280;67697;50.750;-3.270;2023-03-01T12:13:54;102256.22;;;4.69;55.63
78409;BME280;67697;50.750;-3.270;2023-03-01T12:16:14;102255.38;;;6.58;51.93
78409;BME280;67697;50.750;-3.270;2023-03-01T12:21:05;102252.44;;;5.75;52.88
78409;BME280;67697;50.750;-3.270;2023-03-01T12:23:37;102245.38;;;4.90;54.49
78409;BME280;67697;50.750;-3.270;2023-03-01T12:25:54;102245.04;;;4.66;56.44
78409;BME280;67697;50.750;-3.270;2023-03-01T12:28:24;102243.46;;;4.94;55.89
78409;BME280;67697;50.750;-3.270;2023-03-01T12:30:50;102241.74;;;5.08;56.51
78409;BME280;67697;50.750;-3.270;2023-03-01T12:33:17;102240.23;;;4.73;56.73
78409;BME280;67697;50.750;-3.270;2023-03-01T12:35:49;102241.49;;;4.56;57.52
78409;BME280;67697;50.750;-3.270;2023-03-01T12:38:13;102238.98;;;4.38;58.78
78409;BME280;67697;50.750;-3.270;2023-03-01T12:40:33;102235.74;;;4.98;56.39
78409;BME280;67697;50.750;-3.270;2023-03-01T12:42:57;102237.11;;;4.80;56.38
78409;BME280;67697;50.750;-3.270;2023-03-01T12:45:34;102234.85;;;4.13;58.41
78409;BME280;67697;50.750;-3.270;2023-03-01T12:47:51;102227.82;;;4.84;56.83
78409;BME280;67697;50.750;-3.270;2023-03-01T12:50:16;102218.76;;;4.70;57.44
78409;BME280;67697;50.750;-3.270;2023-03-01T12:52:37;102215.54;;;4.35;58.53